Time;durP1;ratioP1;P1;durP2;ratioP2;P2;SDS_P1;SDS_P2;PMS_P1;PMS_P2;Temp;Humidity;BMP_temperature;BMP_pressure;BME280_temperature;BME280_humidity;BME280_pressure;Samples;Min_cycle;Max_cycle;Signal;HPM_P1;HPM_P2
2022/12/19 00:00:33;;;;;;;60.88;24.15;;;-2.70;99.90;;;;;;5111984;28;20170;-77
2022/12/19 00:02:59;;;;;;;42.38;20.25;;;-2.70;99.90;;;;;;5111644;28;20182;-78
2022/12/19 00:05:25;;;;;;;51.67;23.67;;;-2.70;99.90;;;;;;5093229;28;20184;-77
2022/12/19 00:07:52;;;;;;;47.13;22.30;;;-2.70;99.90;;;;;;5093328;28;20206;-77
2022/12/19 00:10:17;;;;;;;46.90;20.77;;;-2.70;99.90;;;;;;5111005;28;20201;-76
2022/12/19 00:12:43;;;;;;;45.67;22.90;;;-2.60;99.90;;;;;;5109534;28;20509;-77
2022/12/19 00:15:09;;;;;;;45.10;21.47;;;-2.60;99.90;;;;;;5110590;28;20177;-76
2022/12/19 00:17:34;;;;;;;47.97;23.37;;;-2.60;99.90;;;;;;5110659;28;20641;-76
2022/12/19 00:20:00;;;;;;;51.57;22.13;;;-2.60;99.90;;;;;;5093360;28;20181;-76
2022/12/19 00:22:25;;;;;;;47.73;20.57;;;-2.50;99.90;;;;;;5110831;28;20432;-77
2022/12/19 00:24:51;;;;;;;48.40;22.50;;;-2.50;99.90;;;;;;5110435;28;20181;-77
2022/12/19 00:27:17;;;;;;;53.63;23.13;;;-2.50;99.90;;;;;;5111227;28;20220;-77
2022/12/19 00:29:42;;;;;;;45.43;21.17;;;-2.50;99.90;;;;;;5109921;28;20247;-77
2022/12/19 00:32:08;;;;;;;46.67;21.40;;;-2.50;99.90;;;;;;5092710;28;20205;-75
2022/12/19 00:34:33;;;;;;;45.90;21.90;;;-2.50;99.90;;;;;;5111549;28;20205;-76
2022/12/19 00:36:59;;;;;;;52.03;21.43;;;-2.50;99.90;;;;;;5111634;28;20250;-76
2022/12/19 00:39:24;;;;;;;40.60;19.47;;;-2.60;99.90;;;;;;5110275;28;20212;-76
2022/12/19 00:41:50;;;;;;;52.70;23.03;;;-2.50;99.90;;;;;;5110644;28;20718;-77
2022/12/19 00:44:16;;;;;;;45.13;20.57;;;-2.50;99.90;;;;;;5110323;28;20181;-77
2022/12/19 00:46:41;;;;;;;40.97;20.50;;;-2.50;99.90;;;;;;5111662;28;20241;-77
2022/12/19 00:49:07;;;;;;;48.20;21.43;;;-2.50;99.90;;;;;;5110132;28;20209;-76
2022/12/19 00:51:35;;;;;;;44.53;22.10;;;-2.50;99.90;;;;;;5112191;28;20416;-76
2022/12/19 00:54:01;;;;;;;50.33;24.00;;;-2.40;99.90;;;;;;5110649;28;20266;-77
2022/12/19 00:56:29;;;;;;;50.17;24.77;;;-2.40;99.90;;;;;;5111455;28;20202;-77
2022/12/19 00:58:56;;;;;;;52.22;23.80;;;-2.40;99.90;;;;;;5111107;28;20288;-77
2022/12/19 01:01:27;;;;;;;54.47;23.83;;;-2.40;99.90;;;;;;5108998;28;20181;-78
2022/12/19 01:03:52;;;;;;;48.95;23.33;;;-2.30;99.90;;;;;;5110778;28;20178;-77
2022/12/19 01:06:18;;;;;;;49.63;23.93;;;-2.40;99.90;;;;;;5091828;28;20196;-77
2022/12/19 01:08:45;;;;;;;45.70;21.73;;;-2.30;99.90;;;;;;5109985;28;20202;-76
2022/12/19 01:11:10;;;;;;;43.42;21.33;;;-2.30;99.90;;;;;;5092349;28;20426;-77
2022/12/19 01:13:38;;;;;;;46.83;21.30;;;-2.30;99.90;;;;;;5109170;28;20201;-77
2022/12/19 01:16:09;;;;;;;42.95;20.08;;;-2.20;99.90;;;;;;5110041;28;20185;-76
2022/12/19 01:18:35;;;;;;;43.85;21.13;;;-2.10;99.90;;;;;;5111119;28;20216;-77
2022/12/19 01:21:04;;;;;;;46.77;21.10;;;-2.10;99.90;;;;;;5110480;28;20620;-77
2022/12/19 01:23:30;;;;;;;50.20;23.45;;;-2.10;99.90;;;;;;5109254;28;20421;-77
2022/12/19 01:25:56;;;;;;;48.20;21.75;;;-2.20;99.90;;;;;;5110090;28;20586;-77
2022/12/19 01:28:23;;;;;;;42.25;20.80;;;-2.20;99.90;;;;;;5108347;28;20288;-77
2022/12/19 01:30:49;;;;;;;41.90;20.75;;;-2.10;99.90;;;;;;5109592;28;20779;-77
2022/12/19 01:33:16;;;;;;;49.07;23.00;;;-2.10;99.90;;;;;;5109416;28;20298;-77
2022/12/19 01:35:45;;;;;;;44.85;22.25;;;-2.10;99.90;;;;;;5109173;28;20443;-75
2022/12/19 01:38:17;;;;;;;50.00;21.95;;;-2.10;99.90;;;;;;5109518;28;20205;-77
2022/12/19 01:40:50;;;;;;;42.00;22.13;;;-2.10;99.90;;;;;;5108274;28;20189;-76
2022/12/19 01:43:16;;;;;;;43.00;20.58;;;-2.00;99.90;;;;;;5090801;28;20217;-77
2022/12/19 01:45:42;;;;;;;48.67;22.40;;;-2.00;99.90;;;;;;5109168;28;20184;-77
2022/12/19 01:48:22;;;;;;;44.03;20.33;;;-2.00;99.90;;;;;;5109363;28;20284;-76
2022/12/19 01:50:56;;;;;;;47.25;22.80;;;-2.00;99.90;;;;;;5108955;28;20174;-76
2022/12/19 01:53:26;;;;;;;42.72;19.70;;;-1.90;99.90;;;;;;5109129;28;20220;-76
2022/12/19 01:55:54;;;;;;;43.97;20.92;;;-2.00;99.90;;;;;;5108710;28;21052;-77
2022/12/19 01:58:20;;;;;;;42.55;19.73;;;-2.00;99.90;;;;;;5107134;28;20250;-77
2022/12/19 02:00:46;;;;;;;40.20;20.70;;;-2.00;99.90;;;;;;5090418;28;20244;-77
2022/12/19 02:03:21;;;;;;;43.00;21.03;;;-1.90;99.90;;;;;;5108601;28;20278;-76
2022/12/19 02:05:47;;;;;;;47.97;22.52;;;-1.80;99.90;;;;;;5108380;28;20224;-77
2022/12/19 02:08:13;;;;;;;49.77;21.20;;;-1.80;99.90;;;;;;5089992;28;20243;-77
2022/12/19 02:10:38;;;;;;;40.67;20.08;;;-1.70;99.90;;;;;;5108569;28;20182;-77
2022/12/19 02:13:05;;;;;;;47.10;21.20;;;-1.60;99.90;;;;;;5089732;28;20266;-77
2022/12/19 02:15:38;;;;;;;41.78;20.00;;;-1.60;99.90;;;;;;5108643;28;20174;-77
2022/12/19 02:18:04;;;;;;;42.95;20.00;;;-1.50;99.90;;;;;;5106731;28;20579;-77
2022/12/19 02:21:11;;;;;;;44.43;20.87;;;-1.30;99.90;;;;;;5106921;28;20185;-77
2022/12/19 02:23:46;;;;;;;39.95;19.92;;;-1.50;99.90;;;;;;5106550;28;20238;-77
2022/12/19 02:26:38;;;;;;;44.22;21.35;;;-1.40;99.90;;;;;;5108152;28;20185;-76
2022/12/19 02:29:10;;;;;;;39.40;20.65;;;-1.50;99.90;;;;;;5105228;28;20243;-77
2022/12/19 02:31:45;;;;;;;40.20;20.83;;;-1.40;99.90;;;;;;5106720;28;20201;-77
2022/12/19 02:34:32;;;;;;;44.63;19.70;;;-1.30;99.90;;;;;;5108170;28;20266;-77
2022/12/19 02:37:02;;;;;;;48.17;22.48;;;-1.20;99.90;;;;;;5109233;28;20684;-76
2022/12/19 02:39:37;;;;;;;46.20;22.23;;;-1.20;99.90;;;;;;5112282;28;20212;-77
2022/12/19 02:42:05;;;;;;;44.08;20.95;;;-1.20;99.90;;;;;;5110573;28;20238;-76
2022/12/19 02:44:53;;;;;;;45.95;20.77;;;-1.10;99.90;;;;;;5110798;28;20182;-76
2022/12/19 02:47:20;;;;;;;46.50;21.55;;;-1.10;99.90;;;;;;5111767;28;20178;-77
2022/12/19 02:49:46;;;;;;;47.47;23.02;;;-1.10;99.90;;;;;;5111839;28;20250;-77
2022/12/19 02:52:32;;;;;;;46.17;21.67;;;-1.10;99.90;;;;;;5110581;28;20291;-76
2022/12/19 02:55:03;;;;;;;42.60;20.40;;;-1.00;99.90;;;;;;5097580;28;20492;-77
2022/12/19 02:57:36;;;;;;;53.92;23.58;;;-1.00;99.90;;;;;;5110511;28;20204;-77
2022/12/19 03:00:06;;;;;;;50.05;23.17;;;-1.00;99.90;;;;;;5110463;28;20286;-77
2022/12/19 03:02:44;;;;;;;49.55;22.15;;;-1.00;99.90;;;;;;5111949;28;20589;-77
2022/12/19 03:05:28;;;;;;;50.60;21.90;;;-1.00;99.90;;;;;;5111730;28;20177;-77
2022/12/19 03:08:27;;;;;;;49.45;22.48;;;-0.90;99.90;;;;;;5111414;28;20720;-77
2022/12/19 03:11:09;;;;;;;53.53;24.45;;;-0.80;99.90;;;;;;5095677;28;20201;-76
2022/12/19 03:14:04;;;;;;;54.25;25.13;;;-0.80;99.90;;;;;;5110017;28;20289;-77
2022/12/19 03:16:29;;;;;;;42.50;20.60;;;-0.90;99.90;;;;;;5107331;28;20714;-76
2022/12/19 03:18:56;;;;;;;48.97;22.30;;;-0.80;99.90;;;;;;5111018;28;20288;-76
2022/12/19 03:21:35;;;;;;;53.85;22.80;;;-0.80;99.90;;;;;;5092992;28;20423;-76
2022/12/19 03:24:03;;;;;;;49.80;22.63;;;-0.70;99.90;;;;;;5110101;28;20310;-77
2022/12/19 03:26:35;;;;;;;50.03;22.60;;;-0.70;99.90;;;;;;5115669;22;20331;-77
2022/12/19 03:29:27;;;;;;;44.60;21.98;;;-0.70;99.90;;;;;;5070711;28;20183;-76
2022/12/19 03:31:54;;;;;;;44.58;22.25;;;-0.70;99.90;;;;;;5071724;28;20179;-76
2022/12/19 03:34:33;;;;;;;51.72;23.52;;;-0.60;99.90;;;;;;5070292;28;20219;-76
2022/12/19 03:37:02;;;;;;;46.88;23.60;;;-0.60;99.90;;;;;;5052332;28;20199;-76
2022/12/19 03:39:30;;;;;;;50.08;23.33;;;-0.50;99.90;;;;;;5070441;28;20532;-76
2022/12/19 03:44:43;;;;;;;48.13;23.65;;;-0.50;99.90;;;;;;5070852;28;20639;-77
2022/12/19 03:47:17;;;;;;;43.58;20.00;;;-0.40;99.90;;;;;;5051732;28;20530;-77
2022/12/19 03:49:44;;;;;;;39.90;19.58;;;-0.40;99.90;;;;;;5070098;28;20194;-77
2022/12/19 03:52:28;;;;;;;45.58;22.00;;;-0.40;99.90;;;;;;5052011;28;20215;-79
2022/12/19 03:55:11;;;;;;;51.08;24.67;;;-0.30;99.90;;;;;;5071575;28;20210;-79
2022/12/19 03:57:54;;;;;;;61.17;27.35;;;-0.30;99.90;;;;;;5053583;28;20183;-77
2022/12/19 04:00:20;;;;;;;57.45;24.45;;;-0.30;99.90;;;;;;5054247;28;20193;-78
2022/12/19 04:02:50;;;;;;;51.20;24.50;;;-0.30;99.90;;;;;;5054073;28;20199;-77
2022/12/19 04:05:24;;;;;;;48.65;24.65;;;-0.30;99.90;;;;;;5054608;28;20282;-78
2022/12/19 04:07:58;;;;;;;48.08;23.52;;;-0.20;99.90;;;;;;5072787;28;20179;-78
2022/12/19 04:10:28;;;;;;;48.22;24.15;;;-0.20;99.90;;;;;;5038873;28;20191;-78
2022/12/19 04:13:05;;;;;;;52.63;25.70;;;-0.20;99.90;;;;;;5055001;28;20268;-78
2022/12/19 04:15:57;;;;;;;46.05;22.48;;;-0.20;99.90;;;;;;5072804;28;20179;-78
2022/12/19 04:18:23;;;;;;;52.38;24.65;;;-0.30;99.90;;;;;;5054710;28;20186;-78
2022/12/19 04:20:58;;;;;;;49.07;23.37;;;-0.30;99.90;;;;;;5058752;28;20180;-78
2022/12/19 04:23:32;;;;;;;51.95;24.73;;;-0.30;99.90;;;;;;5077790;28;20544;-78
2022/12/19 04:26:02;;;;;;;51.50;23.45;;;-0.40;99.90;;;;;;5077294;28;20170;-78
2022/12/19 04:28:47;;;;;;;44.78;23.05;;;-0.40;99.90;;;;;;5077490;28;20520;-78
2022/12/19 04:31:15;;;;;;;50.47;22.27;;;-0.30;99.90;;;;;;5073763;28;20245;-78
2022/12/19 04:33:41;;;;;;;49.70;24.70;;;-0.40;99.90;;;;;;5040214;28;20310;-77
2022/12/19 04:36:09;;;;;;;51.95;23.83;;;-0.30;99.90;;;;;;5074655;28;20203;-77
2022/12/19 04:38:34;;;;;;;50.50;25.40;;;-0.20;99.90;;;;;;5074447;28;20191;-77
2022/12/19 04:41:00;;;;;;;50.00;24.10;;;-0.20;99.90;;;;;;5074158;28;20183;-77
2022/12/19 04:43:25;;;;;;;56.70;25.13;;;-0.10;99.90;;;;;;5075154;28;20204;-78
2022/12/19 04:45:51;;;;;;;59.27;25.37;;;0.00;99.90;;;;;;5039550;28;20191;-77
2022/12/19 04:48:17;;;;;;;50.20;23.70;;;0.00;99.90;;;;;;5039162;28;20277;-77
2022/12/19 04:50:42;;;;;;;53.60;24.23;;;0.00;99.90;;;;;;5037935;28;20667;-79
2022/12/19 04:53:08;;;;;;;47.17;24.40;;;0.00;99.90;;;;;;5070673;28;20227;-79
2022/12/19 04:55:33;;;;;;;54.03;23.43;;;0.00;99.90;;;;;;5052584;28;20180;-80
2022/12/19 04:58:02;;;;;;;50.07;25.50;;;0.00;99.90;;;;;;5036062;28;20181;-78
2022/12/19 05:00:27;;;;;;;54.70;24.55;;;0.00;99.90;;;;;;5069858;28;20180;-79
2022/12/19 05:02:53;;;;;;;48.17;22.90;;;0.00;99.90;;;;;;5052214;28;20214;-78
2022/12/19 05:05:18;;;;;;;46.70;24.47;;;0.00;99.90;;;;;;5053617;28;20201;-77
2022/12/19 05:07:45;;;;;;;48.90;22.13;;;-0.10;99.90;;;;;;5035908;28;20191;-77
2022/12/19 05:10:11;;;;;;;44.35;21.95;;;0.00;99.90;;;;;;5070272;28;20309;-78
2022/12/19 05:12:37;;;;;;;49.33;23.47;;;0.00;99.90;;;;;;5052292;28;20289;-78
2022/12/19 05:15:03;;;;;;;48.37;23.30;;;0.10;99.90;;;;;;5051976;28;20219;-78
2022/12/19 05:17:28;;;;;;;49.58;23.73;;;0.00;99.90;;;;;;5070204;28;20187;-77
2022/12/19 05:19:54;;;;;;;47.10;22.43;;;0.00;99.90;;;;;;5019288;28;20556;-78
2022/12/19 05:22:20;;;;;;;49.07;24.33;;;0.00;99.90;;;;;;5052388;28;20301;-79
2022/12/19 05:24:45;;;;;;;57.33;23.63;;;0.10;99.90;;;;;;5051719;28;20491;-78
2022/12/19 05:27:11;;;;;;;52.37;25.63;;;0.10;99.90;;;;;;5070415;28;20205;-79
2022/12/19 05:29:36;;;;;;;50.13;24.60;;;0.10;99.90;;;;;;5018256;28;20614;-78
2022/12/19 05:32:02;;;;;;;53.30;24.00;;;0.20;99.90;;;;;;5034853;28;20609;-78
2022/12/19 05:34:28;;;;;;;53.50;23.20;;;0.20;99.90;;;;;;5051283;28;20211;-78
2022/12/19 05:36:53;;;;;;;28.50;14.30;;;0.20;99.90;;;;;;5051610;28;20273;-79
2022/12/19 05:39:19;;;;;;;20.13;9.43;;;0.30;99.90;;;;;;5034837;28;20191;-79
2022/12/19 05:41:45;;;;;;;14.67;7.10;;;0.70;99.90;;;;;;5051095;28;20184;-79
2022/12/19 05:44:10;;;;;;;14.23;6.67;;;1.00;99.90;;;;;;5034368;28;20668;-79
2022/12/19 05:46:36;;;;;;;7.77;4.67;;;1.30;99.90;;;;;;5050923;28;20187;-80
2022/12/19 05:49:01;;;;;;;10.20;5.27;;;1.60;99.90;;;;;;5070186;28;20184;-79
2022/12/19 05:51:27;;;;;;;10.13;4.40;;;2.40;99.90;;;;;;5051428;28;20683;-79
2022/12/19 05:53:53;;;;;;;7.13;4.13;;;3.10;99.90;;;;;;5034383;28;20212;-80
2022/12/19 05:56:20;;;;;;;9.87;5.07;;;3.50;99.90;;;;;;5034220;28;20562;-79
2022/12/19 05:58:47;;;;;;;5.63;3.67;;;3.70;99.90;;;;;;5034898;28;20184;-80
2022/12/19 06:01:19;;;;;;;5.70;3.42;;;4.00;99.90;;;;;;5069287;28;20218;-79
2022/12/19 06:03:46;;;;;;;7.78;3.70;;;4.20;99.90;;;;;;5051101;28;20206;-80
2022/12/19 06:06:14;;;;;;;12.82;7.72;;;4.40;99.90;;;;;;5052361;28;20192;-79
2022/12/19 06:08:40;;;;;;;40.53;19.87;;;4.10;99.90;;;;;;5053801;28;20667;-79
2022/12/19 06:11:08;;;;;;;46.17;22.88;;;3.60;99.90;;;;;;5025056;28;20427;-80
2022/12/19 06:13:35;;;;;;;54.55;26.05;;;3.00;99.90;;;;;;5041078;28;20211;-80
2022/12/19 06:16:04;;;;;;;47.45;24.42;;;2.50;99.90;;;;;;5025456;28;20188;-82
2022/12/19 06:18:30;;;;;;;48.08;24.17;;;2.10;99.90;;;;;;5061858;28;20194;-83
2022/12/19 06:21:01;;;;;;;66.57;34.22;;;2.00;99.90;;;;;;5061253;28;20188;-81
2022/12/19 06:23:28;;;;;;;49.78;27.58;;;1.90;99.90;;;;;;5060411;28;20226;-81
2022/12/19 06:25:58;;;;;;;51.42;26.15;;;1.60;99.90;;;;;;5043245;28;20276;-82
2022/12/19 06:28:25;;;;;;;60.47;26.08;;;1.50;99.90;;;;;;5058075;28;20192;-80
2022/12/19 06:30:51;;;;;;;59.72;27.10;;;1.30;99.90;;;;;;5041898;28;20188;-79
2022/12/19 06:33:17;;;;;;;51.37;24.70;;;1.20;99.90;;;;;;5076411;28;20681;-82
2022/12/19 06:35:43;;;;;;;54.80;27.03;;;1.10;99.90;;;;;;5057815;28;20185;-81
2022/12/19 06:38:08;;;;;;;57.77;26.67;;;1.00;99.90;;;;;;5024893;28;20836;-80
2022/12/19 06:43:18;;;;;;;61.40;25.77;;;1.00;99.90;;;;;;5060035;28;20971;-81
2022/12/19 06:45:43;;;;;;;59.47;28.63;;;0.80;99.90;;;;;;5043563;28;20196;-79
2022/12/19 06:48:09;;;;;;;63.97;28.43;;;0.80;99.90;;;;;;5023480;28;20197;-81
2022/12/19 06:50:34;;;;;;;57.30;26.87;;;0.80;99.90;;;;;;5025104;28;20709;-83
2022/12/19 06:53:00;;;;;;;51.30;26.57;;;0.80;99.90;;;;;;5040296;28;20206;-81
2022/12/19 06:55:26;;;;;;;42.80;22.03;;;0.90;99.90;;;;;;5056378;28;20211;-80
2022/12/19 06:57:52;;;;;;;41.90;20.50;;;1.00;99.90;;;;;;5056380;28;20421;-78
2022/12/19 07:00:17;;;;;;;43.33;21.43;;;1.20;99.90;;;;;;5039307;28;20242;-81
2022/12/19 07:02:47;;;;;;;51.13;26.30;;;1.30;99.90;;;;;;5022280;28;20207;-79
2022/12/19 07:05:13;;;;;;;76.50;36.05;;;1.30;99.90;;;;;;5054625;28;20661;-81
2022/12/19 07:07:40;;;;;;;70.07;33.43;;;1.20;99.90;;;;;;5054429;28;20222;-81
2022/12/19 07:10:08;;;;;;;73.10;34.78;;;1.10;99.90;;;;;;5074162;28;20179;-78
2022/12/19 07:12:34;;;;;;;70.90;32.38;;;1.00;99.90;;;;;;5073714;28;20687;-78
2022/12/19 07:15:00;;;;;;;68.90;31.65;;;1.00;99.90;;;;;;5036869;28;20218;-79
2022/12/19 07:17:28;;;;;;;63.23;30.80;;;1.00;99.90;;;;;;5053157;28;20183;-78
2022/12/19 07:19:55;;;;;;;70.43;31.30;;;1.10;99.90;;;;;;5053089;28;20432;-79
2022/12/19 07:22:22;;;;;;;54.60;27.65;;;1.10;99.90;;;;;;5036392;28;20222;-80
2022/12/19 07:24:48;;;;;;;55.55;25.83;;;1.10;99.90;;;;;;5020477;28;20187;-78
2022/12/19 07:27:14;;;;;;;53.40;27.00;;;1.20;99.90;;;;;;5037066;28;20218;-81
2022/12/19 07:29:39;;;;;;;58.73;27.07;;;1.30;99.90;;;;;;5053864;28;20195;-78
2022/12/19 07:32:05;;;;;;;23.63;12.20;;;1.30;99.90;;;;;;5020568;28;20243;-79
2022/12/19 07:34:30;;;;;;;11.57;6.70;;;1.50;99.90;;;;;;5054658;28;20718;-80
2022/12/19 07:36:56;;;;;;;16.70;8.20;;;2.10;99.90;;;;;;5071102;28;20616;-77
2022/12/19 07:39:22;;;;;;;60.47;31.20;;;2.50;99.90;;;;;;5035935;28;20235;-79
2022/12/19 07:41:47;;;;;;;65.40;35.90;;;2.50;99.90;;;;;;5052675;28;20290;-79
2022/12/19 07:44:15;;;;;;;57.03;30.67;;;2.20;99.90;;;;;;5053333;28;20196;-77
2022/12/19 07:46:41;;;;;;;64.13;28.27;;;2.00;99.90;;;;;;5053594;28;20187;-78
2022/12/19 07:49:07;;;;;;;51.53;26.88;;;1.90;99.90;;;;;;5052953;28;20197;-78
2022/12/19 07:51:32;;;;;;;61.63;26.47;;;1.90;99.90;;;;;;5036089;28;20562;-78
2022/12/19 07:53:58;;;;;;;42.20;21.87;;;1.80;99.90;;;;;;5036407;28;20479;-79
2022/12/19 07:56:24;;;;;;;33.00;16.90;;;1.90;99.90;;;;;;5052571;28;20619;-78
2022/12/19 07:58:50;;;;;;;18.90;10.70;;;2.00;99.90;;;;;;5071605;28;20185;-78
2022/12/19 08:01:16;;;;;;;14.65;8.52;;;2.30;99.90;;;;;;5037020;28;20216;-78
2022/12/19 08:03:42;;;;;;;9.60;5.80;;;2.60;99.90;;;;;;5036329;28;20251;-77
2022/12/19 08:06:08;;;;;;;12.83;5.33;;;2.80;99.90;;;;;;5053366;28;20195;-77
2022/12/19 08:08:35;;;;;;;8.93;4.90;;;3.10;99.90;;;;;;5036250;28;20219;-78
2022/12/19 08:11:08;;;;;;;5.70;4.00;;;3.30;99.90;;;;;;5053177;28;20187;-79
2022/12/19 08:13:34;;;;;;;7.90;5.15;;;3.40;99.90;;;;;;5036455;28;20221;-80
2022/12/19 08:16:00;;;;;;;10.20;5.07;;;3.60;99.90;;;;;;5072305;28;20272;-77
2022/12/19 08:18:26;;;;;;;8.25;5.72;;;3.70;99.90;;;;;;5038020;28;20194;-78
2022/12/19 08:20:52;;;;;;;44.30;21.37;;;3.90;99.90;;;;;;5054295;28;20179;-78
2022/12/19 08:23:21;;;;;;;71.05;36.00;;;3.80;99.90;;;;;;5072033;28;20697;-78
2022/12/19 08:25:46;;;;;;;58.78;29.60;;;3.50;99.90;;;;;;5037494;28;20192;-79
2022/12/19 08:28:12;;;;;;;73.50;34.60;;;3.20;99.90;;;;;;5038096;28;20815;-78
2022/12/19 08:30:39;;;;;;;63.90;32.20;;;2.90;99.90;;;;;;5054392;28;20216;-78
2022/12/19 08:33:05;;;;;;;73.00;34.60;;;2.60;99.90;;;;;;5053832;28;20209;-78
2022/12/19 08:35:31;;;;;;;76.43;35.40;;;2.40;99.90;;;;;;5053523;28;20181;-78
2022/12/19 08:37:57;;;;;;;76.33;37.80;;;2.30;99.90;;;;;;5071813;28;20209;-77
2022/12/19 08:40:23;;;;;;;65.23;32.93;;;2.20;99.90;;;;;;5071373;28;20419;-77
2022/12/19 08:42:49;;;;;;;67.38;30.50;;;2.10;99.90;;;;;;5071222;28;20196;-77
2022/12/19 08:45:17;;;;;;;58.33;30.50;;;2.00;99.90;;;;;;5071242;28;20191;-77
2022/12/19 08:47:42;;;;;;;56.90;28.00;;;1.90;99.90;;;;;;5071517;28;20180;-78
2022/12/19 08:50:09;;;;;;;54.30;25.87;;;1.90;99.90;;;;;;5036798;28;20607;-77
2022/12/19 08:52:35;;;;;;;51.15;26.35;;;1.80;99.90;;;;;;5072051;28;20192;-77
2022/12/19 08:55:01;;;;;;;58.63;29.37;;;1.70;99.90;;;;;;5053165;28;20288;-77
2022/12/19 08:57:26;;;;;;;60.95;28.15;;;1.60;99.90;;;;;;5071631;28;20183;-77
2022/12/19 08:59:52;;;;;;;64.93;28.77;;;1.70;99.90;;;;;;5037010;28;20199;-77
2022/12/19 09:02:18;;;;;;;54.53;27.57;;;1.60;99.90;;;;;;5036985;28;20327;-77
2022/12/19 09:04:43;;;;;;;61.90;32.13;;;1.70;99.90;;;;;;5036735;28;20196;-77
2022/12/19 09:07:09;;;;;;;69.67;29.00;;;1.60;99.90;;;;;;5053688;28;20192;-77
2022/12/19 09:09:34;;;;;;;68.93;31.03;;;1.70;99.90;;;;;;5053139;28;20188;-78
2022/12/19 09:12:00;;;;;;;62.03;31.10;;;1.70;99.90;;;;;;5037245;28;20209;-77
2022/12/19 09:14:26;;;;;;;60.87;29.80;;;1.70;99.90;;;;;;5036859;28;20214;-78
2022/12/19 09:16:51;;;;;;;86.03;36.87;;;1.80;99.90;;;;;;5020354;28;20216;-77
2022/12/19 09:19:17;;;;;;;54.03;26.87;;;1.80;99.90;;;;;;5053962;28;20177;-77
2022/12/19 09:21:43;;;;;;;58.70;29.20;;;1.80;99.90;;;;;;5053543;28;20612;-78
2022/12/19 09:24:09;;;;;;;52.03;27.00;;;1.80;99.90;;;;;;5054874;28;20722;-78
2022/12/19 09:26:37;;;;;;;43.97;24.35;;;1.90;99.90;;;;;;5054236;28;20479;-79
2022/12/19 09:29:03;;;;;;;26.88;14.35;;;2.00;99.90;;;;;;5054371;28;20237;-79
2022/12/19 09:31:28;;;;;;;27.57;10.87;;;2.50;99.90;;;;;;5036706;28;20189;-78
2022/12/19 09:33:54;;;;;;;21.37;10.00;;;3.10;99.90;;;;;;5037175;28;20477;-77
2022/12/19 09:36:22;;;;;;;13.80;7.50;;;3.60;99.90;;;;;;5020551;28;20212;-78
2022/12/19 09:38:48;;;;;;;13.60;6.50;;;4.00;99.90;;;;;;5071382;28;20646;-78
2022/12/19 09:41:28;;;;;;;14.82;6.78;;;4.40;99.90;;;;;;5052982;28;20559;-78
2022/12/19 09:44:06;;;;;;;10.40;6.05;;;4.70;99.90;;;;;;5070489;28;20196;-78
2022/12/19 09:46:57;;;;;;;7.87;4.50;;;5.00;99.90;;;;;;5070138;28;20172;-78
2022/12/19 09:49:27;;;;;;;7.70;4.90;;;5.30;99.90;;;;;;5053481;28;20418;-77
2022/12/19 09:52:13;;;;;;;9.23;5.50;;;5.50;99.90;;;;;;5035765;28;20993;-77
2022/12/19 09:54:56;;;;;;;11.30;5.57;;;5.50;99.90;;;;;;5055705;28;20211;-78
2022/12/19 09:57:45;;;;;;;7.68;5.13;;;5.70;99.90;;;;;;5070198;28;20412;-78
2022/12/19 10:00:14;;;;;;;9.63;5.03;;;5.90;99.90;;;;;;5069793;28;20209;-78
2022/12/19 10:02:54;;;;;;;8.83;5.63;;;5.90;99.90;;;;;;5051297;28;20289;-78
2022/12/19 10:06:01;;;;;;;19.23;10.10;;;5.90;99.90;;;;;;5051232;28;20413;-79
2022/12/19 10:08:30;;;;;;;12.80;7.40;;;5.70;99.90;;;;;;5051639;28;20421;-78
2022/12/19 10:11:01;;;;;;;36.42;19.45;;;5.50;99.90;;;;;;5068990;28;20448;-78
2022/12/19 10:13:45;;;;;;;52.73;27.87;;;5.30;99.90;;;;;;5069537;28;20203;-77
2022/12/19 10:16:34;;;;;;;67.23;36.37;;;4.90;99.90;;;;;;5069233;28;20515;-78
2022/12/19 10:19:05;;;;;;;50.40;26.83;;;4.60;99.90;;;;;;5058173;28;20574;-78
2022/12/19 10:21:36;;;;;;;59.60;28.47;;;4.20;99.90;;;;;;5034743;28;20555;-78
2022/12/19 10:24:31;;;;;;;50.30;27.58;;;3.90;99.90;;;;;;5069431;28;20437;-78
2022/12/19 10:27:00;;;;;;;53.93;31.27;;;3.70;99.90;;;;;;4996719;28;20211;-78
2022/12/19 10:29:48;;;;;;;59.20;31.38;;;3.50;99.90;;;;;;5069572;28;20999;-79
2022/12/19 10:32:37;;;;;;;59.08;31.77;;;3.40;99.90;;;;;;5069132;28;20202;-78
2022/12/19 10:35:13;;;;;;;51.72;27.13;;;3.50;99.90;;;;;;5068877;28;20667;-78
2022/12/19 10:37:46;;;;;;;60.15;29.42;;;3.60;99.90;;;;;;5068704;28;20189;-78
2022/12/19 10:40:17;;;;;;;57.00;28.05;;;3.60;99.90;;;;;;5068854;28;20187;-78
2022/12/19 10:43:15;;;;;;;43.17;23.90;;;3.60;99.90;;;;;;5069064;28;20206;-80
2022/12/19 10:45:44;;;;;;;44.10;25.45;;;3.60;99.90;;;;;;5051720;28;20556;-78
2022/12/19 10:48:22;;;;;;;56.28;32.00;;;3.50;99.90;;;;;;5051289;28;20217;-78
2022/12/19 10:50:48;;;;;;;56.97;30.47;;;3.50;99.90;;;;;;5070408;28;20166;-78
2022/12/19 10:53:15;;;;;;;50.90;28.85;;;3.50;99.90;;;;;;5070166;28;20468;-78
2022/12/19 10:55:51;;;;;;;46.15;24.05;;;3.60;99.90;;;;;;5070100;28;20182;-78
2022/12/19 10:58:22;;;;;;;52.38;26.80;;;3.70;99.90;;;;;;5072850;28;20166;-79
2022/12/19 11:01:14;;;;;;;49.27;26.67;;;3.90;99.90;;;;;;5055751;28;20181;-78
2022/12/19 11:03:52;;;;;;;39.60;23.20;;;4.00;99.90;;;;;;5073508;28;20436;-78
2022/12/19 11:06:36;;;;;;;45.40;24.08;;;4.20;99.90;;;;;;5055091;28;20202;-78
2022/12/19 11:09:17;;;;;;;45.75;25.02;;;4.30;99.90;;;;;;5055104;28;20194;-78
2022/12/19 11:11:47;;;;;;;47.45;25.70;;;4.30;99.90;;;;;;5055049;28;20559;-78
2022/12/19 11:14:25;;;;;;;42.83;23.50;;;4.30;99.90;;;;;;5071786;28;20281;-78
2022/12/19 11:16:51;;;;;;;44.17;23.87;;;4.20;99.90;;;;;;5053656;28;20417;-78
2022/12/19 11:19:30;;;;;;;46.87;25.40;;;4.30;99.90;;;;;;5054144;28;20834;-78
2022/12/19 11:22:23;;;;;;;40.37;24.40;;;4.40;99.90;;;;;;5041656;28;20663;-77
2022/12/19 11:24:51;;;;;;;45.72;23.90;;;5.00;99.90;;;;;;5066070;28;20600;-77
2022/12/19 11:27:43;;;;;;;42.10;24.10;;;5.40;99.90;;;;;;5070838;28;20256;-77
2022/12/19 11:30:20;;;;;;;45.40;23.58;;;5.40;99.90;;;;;;5070954;28;20171;-77
2022/12/19 11:32:48;;;;;;;48.27;24.67;;;5.60;99.90;;;;;;5053261;28;20198;-78
2022/12/19 11:35:14;;;;;;;38.37;21.77;;;5.80;99.90;;;;;;5074192;28;20468;-78
2022/12/19 11:37:46;;;;;;;42.67;24.07;;;6.00;99.90;;;;;;5056952;28;20558;-77
2022/12/19 11:40:41;;;;;;;40.20;23.40;;;6.30;99.90;;;;;;5074548;28;20163;-79
2022/12/19 11:43:26;;;;;;;35.40;21.10;;;6.60;99.90;;;;;;5055352;28;20445;-79
2022/12/19 11:46:10;;;;;;;44.23;24.43;;;7.10;99.90;;;;;;5074113;28;20973;-78
2022/12/19 11:49:02;;;;;;;39.60;22.47;;;7.30;99.90;;;;;;5072959;28;20420;-77
2022/12/19 11:51:46;;;;;;;42.93;25.80;;;7.30;99.90;;;;;;5033120;28;20422;-77
2022/12/19 11:54:20;;;;;;;42.37;25.43;;;7.30;99.90;;;;;;5070874;28;20604;-77
2022/12/19 11:56:45;;;;;;;45.00;27.43;;;7.20;99.90;;;;;;5052144;28;20417;-76
2022/12/19 11:59:17;;;;;;;47.47;27.57;;;7.10;99.90;;;;;;5070721;28;20420;-78
2022/12/19 12:02:17;;;;;;;44.80;24.17;;;7.00;99.90;;;;;;5070680;28;20179;-79
2022/12/19 12:05:06;;;;;;;50.13;26.07;;;7.00;99.90;;;;;;5053260;28;20429;-78
2022/12/19 12:07:40;;;;;;;42.27;24.00;;;6.90;99.90;;;;;;5052745;28;20548;-78
2022/12/19 12:10:17;;;;;;;38.77;23.50;;;6.90;99.90;;;;;;5071431;28;20778;-79
2022/12/19 12:12:52;;;;;;;43.60;26.03;;;6.70;99.90;;;;;;5071985;28;20524;-78
2022/12/19 12:15:33;;;;;;;48.47;25.17;;;6.60;99.90;;;;;;5071549;28;20563;-78
2022/12/19 12:18:07;;;;;;;45.17;26.37;;;6.50;99.90;;;;;;5052617;28;20470;-77
2022/12/19 12:20:58;;;;;;;53.43;28.47;;;6.40;99.90;;;;;;5052731;28;20979;-78
2022/12/19 12:23:56;;;;;;;50.03;28.40;;;6.30;99.90;;;;;;5053220;28;20460;-78
2022/12/19 12:26:29;;;;;;;47.03;25.73;;;6.30;99.90;;;;;;5069982;28;20522;-77
2022/12/19 12:29:19;;;;;;;50.23;26.70;;;6.30;99.90;;;;;;5070386;28;20425;-77
2022/12/19 12:32:09;;;;;;;42.63;25.23;;;6.20;99.90;;;;;;5069616;28;20971;-77
2022/12/19 12:34:52;;;;;;;50.73;28.10;;;6.10;99.90;;;;;;5069806;28;20464;-77
2022/12/19 12:37:23;;;;;;;49.10;28.40;;;6.20;99.90;;;;;;5070904;28;20404;-79
2022/12/19 12:40:09;;;;;;;52.73;28.00;;;6.00;99.90;;;;;;5070780;28;20417;-80
2022/12/19 12:43:03;;;;;;;50.63;30.00;;;6.10;99.90;;;;;;5050813;28;20953;-78
2022/12/19 12:45:38;;;;;;;52.10;30.67;;;6.10;99.90;;;;;;5069751;28;20436;-79
2022/12/19 12:48:18;;;;;;;53.70;31.30;;;6.10;99.90;;;;;;5069926;28;20401;-79
2022/12/19 12:50:46;;;;;;;52.07;28.83;;;6.10;99.90;;;;;;5069288;28;20929;-77
2022/12/19 12:53:16;;;;;;;51.43;29.73;;;6.10;99.90;;;;;;5018284;28;21119;-77
2022/12/19 12:55:43;;;;;;;49.60;28.63;;;6.10;99.90;;;;;;5051266;28;20807;-78
2022/12/19 12:58:45;;;;;;;46.00;28.17;;;6.20;99.90;;;;;;5069463;28;20413;-78
2022/12/19 13:01:28;;;;;;;67.80;37.83;;;6.20;99.90;;;;;;5069195;28;21255;-78